createdAt,value
2022-08-28T00:00:00.096Z,2.10
2022-08-28T00:01:00.952Z,2.00
2022-08-28T00:02:01.836Z,1.80
2022-08-28T00:03:02.783Z,2.00
2022-08-28T00:04:03.632Z,2.00
2022-08-28T00:05:04.542Z,1.90
2022-08-28T00:06:05.423Z,1.80
2022-08-28T00:07:06.332Z,1.60
2022-08-28T00:08:07.216Z,1.70
2022-08-28T00:09:08.107Z,2.00
2022-08-28T00:10:08.789Z,1.70
2022-08-28T00:11:09.685Z,1.90
2022-08-28T00:12:10.567Z,1.90
2022-08-28T00:13:11.450Z,1.80
2022-08-28T00:14:12.332Z,1.80
2022-08-28T00:15:13.207Z,1.90
2022-08-28T00:16:14.121Z,1.60
2022-08-28T00:17:14.988Z,1.60
2022-08-28T00:18:15.917Z,1.70
2022-08-28T00:19:16.741Z,1.80
2022-08-28T00:20:17.627Z,1.80
2022-08-28T00:21:18.517Z,1.80
2022-08-28T00:22:19.399Z,1.60
2022-08-28T00:23:20.275Z,1.60
2022-08-28T00:24:21.157Z,1.70
2022-08-28T00:25:22.060Z,1.60
2022-08-28T00:26:22.943Z,1.70
2022-08-28T00:27:23.829Z,1.60
2022-08-28T00:28:24.740Z,1.50
2022-08-28T00:29:25.595Z,1.70
2022-08-28T00:30:26.484Z,1.80
2022-08-28T00:31:27.422Z,1.60
2022-08-28T00:32:28.283Z,1.90
2022-08-28T00:33:29.168Z,1.70
2022-08-28T00:34:33.503Z,1.80
2022-08-28T00:35:31.005Z,1.50
2022-08-28T00:36:31.887Z,1.70
2022-08-28T00:37:32.771Z,1.60
2022-08-28T00:38:33.654Z,1.60
2022-08-28T00:39:34.247Z,1.80
2022-08-28T00:40:35.169Z,1.60
2022-08-28T00:41:36.444Z,1.60
2022-08-28T00:42:36.807Z,1.50
2022-08-28T00:43:37.695Z,1.80
2022-08-28T00:44:38.574Z,1.80
2022-08-28T00:45:40.247Z,1.60
2022-08-28T00:46:40.235Z,1.60
2022-08-28T00:47:41.098Z,1.50
2022-08-28T00:48:41.979Z,1.60
2022-08-28T00:49:42.861Z,1.50
2022-08-28T00:50:43.662Z,1.60
2022-08-28T00:51:44.547Z,1.70
2022-08-28T00:52:45.429Z,1.40
2022-08-28T00:53:46.302Z,1.50
2022-08-28T00:54:58.880Z,1.60
2022-08-28T00:55:48.964Z,1.80
2022-08-28T00:56:48.847Z,1.50
2022-08-28T00:57:49.730Z,1.50
2022-08-28T00:58:50.612Z,1.50
2022-08-28T00:59:51.496Z,1.60
2022-08-28T01:00:52.451Z,1.50
2022-08-28T01:01:53.368Z,1.30
2022-08-28T01:02:54.312Z,1.60
2022-08-28T01:03:55.166Z,1.50
2022-08-28T01:04:56.051Z,1.50
2022-08-28T01:05:56.940Z,1.60
2022-08-28T01:06:57.822Z,1.60
2022-08-28T01:07:58.719Z,1.60
2022-08-28T01:08:59.588Z,1.40
2022-08-28T01:10:00.462Z,1.50
2022-08-28T01:11:01.353Z,1.70
2022-08-28T01:12:02.235Z,1.40
2022-08-28T01:13:03.131Z,1.50
2022-08-28T01:14:04.007Z,1.40
2022-08-28T01:15:04.886Z,1.50
2022-08-28T01:16:05.828Z,1.40
2022-08-28T01:17:06.660Z,1.50
2022-08-28T01:18:08.621Z,1.50
2022-08-28T01:19:08.527Z,1.50
2022-08-28T01:20:09.411Z,1.50
2022-08-28T01:21:10.305Z,1.70
2022-08-28T01:22:10.800Z,1.80
2022-08-28T01:23:11.681Z,1.60
2022-08-28T01:24:12.567Z,1.90
2022-08-28T01:25:13.451Z,2.00
2022-08-28T01:26:14.345Z,1.80
2022-08-28T01:27:15.226Z,1.90
2022-08-28T01:28:16.147Z,1.90
2022-08-28T01:29:16.514Z,1.80
2022-08-28T01:30:17.387Z,1.70
2022-08-28T01:31:18.302Z,1.70
2022-08-28T01:32:19.166Z,1.70
2022-08-28T01:33:20.048Z,1.70
2022-08-28T01:34:21.819Z,1.50
2022-08-28T01:35:21.703Z,1.80
2022-08-28T01:36:22.598Z,1.70
2022-08-28T01:37:23.478Z,1.80
2022-08-28T01:38:27.008Z,1.80
2022-08-28T01:39:24.957Z,1.60
2022-08-28T01:40:25.908Z,1.50
2022-08-28T01:41:26.780Z,1.30
2022-08-28T01:42:27.664Z,1.30
2022-08-28T01:43:28.563Z,1.20
2022-08-28T01:44:29.467Z,1.40
2022-08-28T01:45:30.368Z,1.40
2022-08-28T01:46:31.395Z,1.50
2022-08-28T01:47:32.217Z,1.40
2022-08-28T01:48:33.093Z,1.50
2022-08-28T01:49:33.980Z,1.50
2022-08-28T01:50:34.853Z,1.40
2022-08-28T01:51:37.974Z,1.50
2022-08-28T01:52:36.586Z,1.60
2022-08-28T01:53:37.291Z,1.50
2022-08-28T01:54:38.174Z,1.60
2022-08-28T01:55:38.887Z,1.40
2022-08-28T01:56:39.813Z,1.60
2022-08-28T01:57:40.694Z,1.50
2022-08-28T01:58:41.576Z,1.50
2022-08-28T01:59:42.458Z,1.40
2022-08-28T02:00:43.333Z,1.40
2022-08-28T02:01:44.317Z,1.60
2022-08-28T02:02:45.166Z,1.30
2022-08-28T02:03:46.124Z,1.50
2022-08-28T02:04:48.361Z,1.50
2022-08-28T02:05:47.785Z,1.40
2022-08-28T02:06:48.681Z,1.70
2022-08-28T02:07:49.562Z,1.30
2022-08-28T02:08:50.445Z,1.30
2022-08-28T02:09:51.335Z,1.40
2022-08-28T02:10:52.239Z,1.70
2022-08-28T02:11:53.152Z,1.50
2022-08-28T02:12:54.043Z,1.60
2022-08-28T02:13:56.316Z,1.50
2022-08-28T02:14:55.749Z,1.20
2022-08-28T02:15:56.680Z,1.40
2022-08-28T02:16:57.545Z,1.40
2022-08-28T02:17:58.427Z,1.30
2022-08-28T02:18:59.301Z,1.60
2022-08-28T02:20:00.187Z,1.30
2022-08-28T02:21:01.067Z,1.50
2022-08-28T02:22:01.959Z,1.40
2022-08-28T02:23:02.846Z,1.50
2022-08-28T02:24:03.726Z,1.50
2022-08-28T02:25:04.610Z,1.50
2022-08-28T02:26:05.492Z,1.40
2022-08-28T02:27:06.385Z,1.60
2022-08-28T02:28:07.268Z,1.30
2022-08-28T02:29:07.822Z,1.30
2022-08-28T02:30:08.703Z,1.40
2022-08-28T02:31:09.687Z,1.30
2022-08-28T02:32:10.524Z,1.60
2022-08-28T02:33:11.399Z,1.40
2022-08-28T02:34:12.298Z,1.50
2022-08-28T02:35:13.203Z,1.40
2022-08-28T02:36:14.086Z,1.40
2022-08-28T02:37:14.978Z,1.50
2022-08-28T02:38:15.945Z,1.40
2022-08-28T02:39:16.817Z,1.40
2022-08-28T02:40:17.753Z,1.50
2022-08-28T02:41:18.618Z,1.80
2022-08-28T02:42:19.532Z,1.60
2022-08-28T02:43:20.422Z,1.50
2022-08-28T02:44:21.324Z,1.60
2022-08-28T02:45:22.229Z,1.60
2022-08-28T02:46:23.199Z,1.80
2022-08-28T02:47:24.049Z,1.40
2022-08-28T02:48:24.936Z,1.60
2022-08-28T02:49:25.839Z,1.40
2022-08-28T02:50:27.607Z,1.40
2022-08-28T02:51:27.489Z,1.60
2022-08-28T02:52:28.381Z,1.60
2022-08-28T02:53:29.255Z,1.50
2022-08-28T02:54:30.136Z,1.30
2022-08-28T02:55:34.083Z,1.40
2022-08-28T02:56:31.631Z,1.50
2022-08-28T02:57:32.527Z,1.50
2022-08-28T02:58:33.408Z,1.50
2022-08-28T02:59:34.293Z,1.50
2022-08-28T03:00:35.176Z,1.80
2022-08-28T03:01:36.147Z,1.50
2022-08-28T03:02:37.070Z,1.50
2022-08-28T03:03:37.912Z,1.70
2022-08-28T03:04:38.805Z,1.40
2022-08-28T03:05:39.689Z,1.50
2022-08-28T03:06:40.571Z,1.60
2022-08-28T03:07:41.465Z,1.50
2022-08-28T03:08:42.347Z,1.40
2022-08-28T03:09:43.232Z,1.60
2022-08-28T03:10:44.113Z,1.30
2022-08-28T03:11:44.898Z,1.50
2022-08-28T03:12:45.790Z,1.50
2022-08-28T03:13:46.662Z,1.50
2022-08-28T03:14:47.544Z,1.60
2022-08-28T03:15:48.429Z,1.60
2022-08-28T03:16:50.274Z,1.60
2022-08-28T03:17:50.362Z,1.40
2022-08-28T03:18:50.625Z,1.50
2022-08-28T03:19:51.503Z,1.50
2022-08-28T03:20:52.391Z,1.50
2022-08-28T03:21:53.296Z,1.60
2022-08-28T03:22:54.172Z,1.50
2022-08-28T03:23:55.056Z,1.30
2022-08-28T03:24:55.948Z,1.50
2022-08-28T03:25:56.830Z,1.50
2022-08-28T03:26:57.714Z,1.50
2022-08-28T03:27:58.595Z,1.50
2022-08-28T03:28:59.794Z,1.70
2022-08-28T03:30:00.166Z,1.40
2022-08-28T03:31:01.107Z,1.60
2022-08-28T03:32:01.982Z,1.60
2022-08-28T03:33:02.872Z,1.40
2022-08-28T03:34:03.746Z,1.20
2022-08-28T03:35:04.628Z,1.40
2022-08-28T03:36:05.512Z,1.40
2022-08-28T03:37:06.393Z,1.50
2022-08-28T03:38:07.069Z,1.50
2022-08-28T03:39:07.972Z,1.40
2022-08-28T03:40:08.915Z,1.40
2022-08-28T03:41:09.789Z,1.40
2022-08-28T03:42:10.681Z,1.60
2022-08-28T03:43:11.608Z,1.40
2022-08-28T03:44:12.491Z,1.50
2022-08-28T03:45:13.385Z,1.70
2022-08-28T03:46:14.354Z,1.40
2022-08-28T03:47:15.228Z,1.40
2022-08-28T03:48:15.865Z,1.60
2022-08-28T03:49:16.719Z,1.40
2022-08-28T03:50:17.303Z,1.30
2022-08-28T03:51:17.934Z,1.40
2022-08-28T03:52:18.458Z,1.40
2022-08-28T03:53:19.349Z,1.40
2022-08-28T03:54:20.234Z,1.30
2022-08-28T03:55:21.115Z,1.60
2022-08-28T03:56:21.990Z,1.60
2022-08-28T03:57:22.871Z,1.30
2022-08-28T03:58:23.763Z,1.30
2022-08-28T03:59:31.705Z,1.40
2022-08-28T04:00:26.416Z,1.40
2022-08-28T04:01:26.374Z,1.60
2022-08-28T04:02:27.211Z,1.30
2022-08-28T04:03:28.175Z,1.50
2022-08-28T04:04:29.059Z,1.50
2022-08-28T04:05:29.942Z,1.30
2022-08-28T04:06:30.826Z,1.50
2022-08-28T04:07:31.707Z,1.40
2022-08-28T04:08:32.601Z,1.30
2022-08-28T04:09:33.486Z,1.30
2022-08-28T04:10:34.367Z,1.30
2022-08-28T04:11:35.248Z,1.50
2022-08-28T04:12:36.132Z,1.30
2022-08-28T04:13:36.970Z,1.30
2022-08-28T04:14:37.855Z,1.40
2022-08-28T04:15:38.739Z,1.30
2022-08-28T04:16:39.683Z,1.30
2022-08-28T04:17:40.566Z,1.20
2022-08-28T04:18:41.460Z,1.30
2022-08-28T04:19:42.341Z,1.30
2022-08-28T04:20:45.478Z,1.30
2022-08-28T04:21:43.864Z,1.40
2022-08-28T04:22:44.701Z,1.60
2022-08-28T04:23:45.510Z,1.50
2022-08-28T04:24:46.395Z,1.30
2022-08-28T04:25:47.279Z,1.30
2022-08-28T04:26:48.164Z,1.40
2022-08-28T04:27:49.058Z,1.40
2022-08-28T04:28:49.898Z,1.30
2022-08-28T04:29:50.377Z,1.30
2022-08-28T04:30:51.207Z,1.30
2022-08-28T04:31:52.151Z,1.40
2022-08-28T04:32:53.021Z,1.20
2022-08-28T04:33:53.914Z,1.30
2022-08-28T04:34:54.752Z,1.20
2022-08-28T04:35:55.580Z,1.30
2022-08-28T04:36:56.408Z,1.30
2022-08-28T04:37:58.989Z,1.50
2022-08-28T04:38:57.931Z,1.50
2022-08-28T04:39:58.806Z,1.60
2022-08-28T04:40:59.578Z,1.60
2022-08-28T04:42:00.404Z,1.80
2022-08-28T04:43:01.245Z,1.80
2022-08-28T04:44:02.073Z,1.80
2022-08-28T04:45:02.901Z,1.60
2022-08-28T04:46:03.787Z,1.50
2022-08-28T04:47:04.560Z,1.60
2022-08-28T04:48:13.768Z,1.60
2022-08-28T04:49:06.807Z,1.90
2022-08-28T04:50:06.636Z,1.70
2022-08-28T04:51:07.467Z,1.70
2022-08-28T04:52:08.293Z,1.90
2022-08-28T04:53:09.132Z,2.10
2022-08-28T04:54:09.963Z,2.10
2022-08-28T04:55:10.791Z,2.00
2022-08-28T04:56:11.633Z,1.80
2022-08-28T04:57:12.459Z,1.80
2022-08-28T04:58:13.394Z,1.70
2022-08-28T04:59:14.228Z,1.90
2022-08-28T05:00:15.058Z,1.90
2022-08-28T05:01:15.986Z,2.10
2022-08-28T05:02:16.884Z,1.80
2022-08-28T05:03:17.677Z,1.80
2022-08-28T05:04:18.506Z,1.90
2022-08-28T05:05:19.340Z,1.90
2022-08-28T05:06:20.115Z,1.70
2022-08-28T05:07:20.944Z,1.80
2022-08-28T05:08:21.792Z,1.70
2022-08-28T05:09:22.619Z,1.80
2022-08-28T05:10:23.450Z,1.70
2022-08-28T05:11:34.624Z,1.80
2022-08-28T05:12:25.995Z,2.00
2022-08-28T05:13:25.836Z,1.80
2022-08-28T05:14:26.669Z,2.00
2022-08-28T05:15:27.496Z,1.70
2022-08-28T05:16:28.394Z,2.00
2022-08-28T05:17:29.189Z,2.10
2022-08-28T05:18:29.966Z,2.00
2022-08-28T05:19:30.786Z,2.20
2022-08-28T05:20:31.614Z,2.60
2022-08-28T05:21:32.445Z,2.30
2022-08-28T05:22:33.263Z,2.30
2022-08-28T05:23:34.102Z,2.30
2022-08-28T05:24:34.923Z,2.60
2022-08-28T05:25:35.842Z,2.60
2022-08-28T05:26:36.661Z,2.40
2022-08-28T05:27:37.391Z,2.10
2022-08-28T05:28:38.231Z,2.30
2022-08-28T05:29:39.059Z,2.00
2022-08-28T05:30:39.889Z,2.00
2022-08-28T05:31:40.771Z,3.50
2022-08-28T05:32:41.562Z,3.70
2022-08-28T05:33:42.398Z,2.50
2022-08-28T05:34:43.227Z,2.50
2022-08-28T05:35:44.066Z,2.70
2022-08-28T05:36:44.897Z,1.80
2022-08-28T05:37:45.725Z,2.00
2022-08-28T05:38:46.567Z,1.90
2022-08-28T05:39:47.394Z,1.90
2022-08-28T05:40:48.224Z,2.10
2022-08-28T05:41:49.053Z,2.10
2022-08-28T05:42:49.882Z,2.10
2022-08-28T05:43:50.729Z,2.00
2022-08-28T05:44:54.592Z,1.90
2022-08-28T05:45:52.128Z,2.00
2022-08-28T05:46:52.888Z,1.90
2022-08-28T05:47:53.717Z,2.10
2022-08-28T05:48:54.557Z,1.90
2022-08-28T05:49:55.389Z,1.90
2022-08-28T05:50:56.219Z,1.70
2022-08-28T05:51:57.046Z,1.80
2022-08-28T05:52:57.878Z,1.90
2022-08-28T05:53:58.716Z,1.90
2022-08-28T05:54:59.535Z,1.80
2022-08-28T05:56:00.364Z,1.80
2022-08-28T05:57:01.206Z,2.00
2022-08-28T05:58:01.995Z,2.10
2022-08-28T05:59:02.834Z,1.90
2022-08-28T06:00:03.664Z,2.00
2022-08-28T06:01:04.506Z,1.90
2022-08-28T06:02:05.366Z,1.90
2022-08-28T06:03:06.164Z,1.90
2022-08-28T06:04:07.084Z,1.80
2022-08-28T06:05:07.885Z,1.70
2022-08-28T06:06:08.717Z,1.80
2022-08-28T06:07:09.543Z,1.70
2022-08-28T06:08:10.373Z,1.80
2022-08-28T06:09:11.201Z,1.80
2022-08-28T06:10:12.031Z,1.50
2022-08-28T06:11:12.851Z,1.40
2022-08-28T06:12:13.680Z,1.60
2022-08-28T06:13:14.669Z,1.70
2022-08-28T06:14:16.252Z,1.50
2022-08-28T06:15:16.180Z,1.60
2022-08-28T06:16:17.039Z,1.60
2022-08-28T06:17:17.826Z,1.40
2022-08-28T06:18:19.540Z,1.50
2022-08-28T06:19:19.398Z,1.50
2022-08-28T06:20:20.246Z,1.50
2022-08-28T06:21:21.053Z,1.60
2022-08-28T06:22:21.883Z,1.60
2022-08-28T06:23:24.076Z,1.70
2022-08-28T06:24:23.561Z,1.30
2022-08-28T06:25:24.392Z,1.30
2022-08-28T06:26:25.224Z,1.60
2022-08-28T06:27:26.051Z,1.50
2022-08-28T06:28:26.881Z,1.60
2022-08-28T06:29:27.726Z,1.70
2022-08-28T06:30:28.550Z,1.90
2022-08-28T06:31:33.239Z,1.50
2022-08-28T06:32:30.576Z,1.60
2022-08-28T06:33:31.344Z,1.60
2022-08-28T06:34:32.196Z,1.60
2022-08-28T06:35:33.028Z,1.70
2022-08-28T06:36:33.860Z,1.60
2022-08-28T06:37:34.680Z,2.10
2022-08-28T06:38:35.506Z,1.80
2022-08-28T06:39:36.348Z,1.90
2022-08-28T06:40:37.213Z,1.90
2022-08-28T06:41:37.994Z,2.00
2022-08-28T06:42:38.823Z,1.90
2022-08-28T06:43:39.652Z,1.80
2022-08-28T06:44:40.494Z,1.90
2022-08-28T06:45:41.372Z,1.90
2022-08-28T06:46:42.170Z,1.80
2022-08-28T06:47:42.991Z,1.70
2022-08-28T06:48:43.820Z,1.70
2022-08-28T06:49:44.660Z,1.60
2022-08-28T06:50:45.489Z,1.80
2022-08-28T06:51:46.309Z,1.80
2022-08-28T06:52:47.138Z,1.70
2022-08-28T06:53:47.975Z,1.70
2022-08-28T06:54:55.581Z,1.60
2022-08-28T06:55:50.530Z,1.50
2022-08-28T06:56:50.358Z,1.80
2022-08-28T06:57:51.180Z,1.80
2022-08-28T06:58:52.010Z,1.60
2022-08-28T06:59:52.851Z,1.70
2022-08-28T07:01:00.904Z,1.60
2022-08-28T07:01:55.562Z,1.60
2022-08-28T07:02:54.936Z,1.60
2022-08-28T07:03:55.727Z,1.50
2022-08-28T07:04:56.566Z,1.60
2022-08-28T07:05:57.384Z,1.70
2022-08-28T07:06:58.214Z,1.70
2022-08-28T07:07:59.034Z,1.80
2022-08-28T07:08:59.863Z,1.80
2022-08-28T07:10:00.693Z,1.90
2022-08-28T07:11:01.524Z,1.80
2022-08-28T07:12:02.344Z,1.70
2022-08-28T07:13:03.174Z,1.70
2022-08-28T07:14:03.996Z,1.80
2022-08-28T07:15:04.843Z,1.40
2022-08-28T07:16:05.749Z,1.70
2022-08-28T07:17:06.530Z,1.40
2022-08-28T07:18:07.361Z,1.60
2022-08-28T07:19:08.191Z,1.50
2022-08-28T07:20:08.830Z,1.60
2022-08-28T07:21:12.449Z,1.50
2022-08-28T07:22:10.389Z,1.50
2022-08-28T07:23:11.211Z,1.60
2022-08-28T07:24:12.032Z,1.40
2022-08-28T07:25:12.869Z,1.50
2022-08-28T07:26:13.698Z,1.30
2022-08-28T07:27:18.779Z,1.50
2022-08-28T07:28:15.374Z,1.50
2022-08-28T07:29:16.158Z,1.50
2022-08-28T07:30:16.978Z,1.50
2022-08-28T07:31:17.881Z,1.40
2022-08-28T07:32:18.658Z,1.50
2022-08-28T07:33:19.487Z,1.60
2022-08-28T07:34:20.327Z,1.50
2022-08-28T07:35:21.154Z,1.60
2022-08-28T07:36:29.243Z,1.40
2022-08-28T07:37:23.702Z,1.50
2022-08-28T07:38:23.522Z,1.50
2022-08-28T07:39:24.359Z,1.60
2022-08-28T07:40:25.268Z,1.50
2022-08-28T07:41:26.048Z,1.50
2022-08-28T07:42:26.878Z,1.40
2022-08-28T07:43:27.711Z,1.50
2022-08-28T07:44:28.548Z,1.50
2022-08-28T07:45:29.419Z,1.40
2022-08-28T07:46:30.198Z,1.60
2022-08-28T07:47:31.025Z,1.40
2022-08-28T07:48:31.855Z,1.60
2022-08-28T07:49:32.696Z,1.50
2022-08-28T07:50:33.516Z,1.40
2022-08-28T07:51:34.346Z,1.60
2022-08-28T07:52:35.170Z,1.50
2022-08-28T07:53:36.643Z,1.70
2022-08-28T07:54:36.750Z,1.50
2022-08-28T07:55:37.518Z,1.50
2022-08-28T07:56:38.335Z,1.50
2022-08-28T07:57:39.124Z,1.50
2022-08-28T07:58:39.906Z,1.40
2022-08-28T07:59:40.763Z,1.50
2022-08-28T08:00:41.627Z,1.50
2022-08-28T08:01:42.531Z,1.50
2022-08-28T08:02:43.342Z,1.50
2022-08-28T08:03:44.244Z,1.50
2022-08-28T08:04:45.057Z,1.50
2022-08-28T08:05:45.894Z,1.40
2022-08-28T08:06:46.717Z,1.60
2022-08-28T08:07:47.545Z,1.50
2022-08-28T08:08:48.374Z,1.50
2022-08-28T08:09:49.211Z,1.50
2022-08-28T08:10:49.874Z,1.40
2022-08-28T08:11:50.831Z,1.30
2022-08-28T08:12:52.354Z,1.20
2022-08-28T08:13:52.688Z,1.40
2022-08-28T08:14:53.491Z,1.40
2022-08-28T08:15:54.415Z,1.40
2022-08-28T08:16:55.227Z,1.40
2022-08-28T08:17:56.024Z,1.50
2022-08-28T08:18:56.854Z,1.30
2022-08-28T08:19:57.693Z,2.10
2022-08-28T08:20:58.514Z,1.50
2022-08-28T08:21:59.388Z,1.50
2022-08-28T08:23:00.187Z,1.40
2022-08-28T08:24:01.033Z,1.50
2022-08-28T08:25:01.866Z,1.50
2022-08-28T08:26:02.694Z,1.50
2022-08-28T08:27:03.527Z,1.50
2022-08-28T08:28:04.381Z,1.40
2022-08-28T08:29:05.189Z,1.40
2022-08-28T08:30:06.028Z,1.20
2022-08-28T08:31:06.884Z,1.40
2022-08-28T08:32:07.682Z,1.20
2022-08-28T08:33:08.509Z,1.20
2022-08-28T08:34:09.374Z,1.20
2022-08-28T08:35:10.204Z,1.20
2022-08-28T08:36:11.025Z,1.20
2022-08-28T08:37:11.860Z,1.40
2022-08-28T08:38:12.676Z,1.20
2022-08-28T08:39:13.496Z,1.20
2022-08-28T08:40:14.277Z,1.30
2022-08-28T08:41:15.051Z,1.30
2022-08-28T08:42:15.905Z,1.40
2022-08-28T08:43:16.735Z,1.40
2022-08-28T08:44:17.565Z,1.20
2022-08-28T08:45:18.405Z,1.20
2022-08-28T08:46:19.281Z,1.20
2022-08-28T08:47:20.081Z,1.50
2022-08-28T08:48:20.911Z,1.30
2022-08-28T08:49:22.589Z,1.40
2022-08-28T08:50:22.391Z,1.10
2022-08-28T08:51:23.219Z,1.10
2022-08-28T08:52:24.079Z,1.20
2022-08-28T08:53:24.879Z,1.20
2022-08-28T08:54:25.722Z,1.10
2022-08-28T08:55:26.551Z,1.10
2022-08-28T08:56:34.637Z,1.10
2022-08-28T08:57:29.135Z,1.00
2022-08-28T08:58:28.664Z,1.10
2022-08-28T08:59:29.476Z,1.10
2022-08-28T09:00:30.303Z,1.10
2022-08-28T09:01:31.163Z,1.20
2022-08-28T09:02:31.975Z,1.00
2022-08-28T09:03:32.865Z,1.10
2022-08-28T09:04:33.710Z,1.10
2022-08-28T09:05:34.509Z,1.00
2022-08-28T09:06:35.340Z,1.10
2022-08-28T09:07:36.167Z,1.00
2022-08-28T09:08:36.987Z,1.20
2022-08-28T09:09:37.828Z,1.10
2022-08-28T09:10:38.683Z,1.10
2022-08-28T09:11:39.491Z,1.00
2022-08-28T09:12:40.309Z,1.00
2022-08-28T09:13:41.139Z,1.20
2022-08-28T09:14:41.989Z,1.10
2022-08-28T09:15:46.303Z,1.20
2022-08-28T09:16:44.573Z,1.20
2022-08-28T09:17:44.364Z,1.20
2022-08-28T09:18:45.197Z,1.10
2022-08-28T09:19:46.033Z,1.10
2022-08-28T09:20:46.864Z,1.10
2022-08-28T09:21:47.692Z,1.10
2022-08-28T09:22:48.548Z,1.20
2022-08-28T09:23:49.348Z,1.10
2022-08-28T09:24:50.387Z,1.10
2022-08-28T09:25:51.482Z,1.20
2022-08-28T09:26:51.422Z,1.20
2022-08-28T09:27:52.321Z,1.10
2022-08-28T09:28:53.210Z,1.00
2022-08-28T09:29:54.014Z,1.20
2022-08-28T09:30:54.885Z,1.10
2022-08-28T09:31:55.661Z,1.10
2022-08-28T09:32:56.483Z,1.20
2022-08-28T09:33:57.312Z,1.10
2022-08-28T09:34:58.206Z,1.20
2022-08-28T09:35:58.991Z,1.20
2022-08-28T09:36:59.962Z,1.20
2022-08-28T09:38:00.790Z,1.00
2022-08-28T09:39:01.613Z,1.10
2022-08-28T09:40:02.482Z,1.10
2022-08-28T09:41:03.314Z,1.20
2022-08-28T09:42:04.114Z,1.30
2022-08-28T09:43:04.941Z,1.30
2022-08-28T09:44:05.771Z,1.20
2022-08-28T09:45:09.522Z,1.10
2022-08-28T09:46:07.558Z,1.10
2022-08-28T09:47:08.381Z,1.20
2022-08-28T09:48:09.255Z,1.30
2022-08-28T09:49:10.060Z,1.30
2022-08-28T09:50:10.897Z,1.10
2022-08-28T09:51:11.728Z,1.10
2022-08-28T09:52:12.559Z,1.20
2022-08-28T09:53:13.418Z,1.10
2022-08-28T09:54:14.260Z,1.30
2022-08-28T09:55:15.091Z,1.40
2022-08-28T09:56:15.920Z,1.30
2022-08-28T09:57:16.751Z,1.20
2022-08-28T09:58:17.581Z,1.10
2022-08-28T09:59:18.429Z,1.20
2022-08-28T10:00:19.251Z,1.20
2022-08-28T10:01:20.199Z,1.10
2022-08-28T10:02:20.991Z,1.30
2022-08-28T10:03:21.824Z,1.20
2022-08-28T10:04:22.689Z,1.20
2022-08-28T10:05:26.741Z,1.20
2022-08-28T10:06:24.153Z,1.30
2022-08-28T10:07:24.990Z,1.20
2022-08-28T10:08:25.814Z,1.20
2022-08-28T10:09:26.635Z,1.20
2022-08-28T10:10:27.473Z,1.30
2022-08-28T10:11:28.581Z,1.30
2022-08-28T10:12:28.947Z,1.40
2022-08-28T10:13:29.768Z,1.40
2022-08-28T10:14:30.606Z,1.30
2022-08-28T10:15:31.525Z,1.30
2022-08-28T10:16:32.345Z,1.50
2022-08-28T10:17:33.216Z,1.40
2022-08-28T10:18:34.014Z,1.40
2022-08-28T10:19:34.907Z,1.30
2022-08-28T10:20:35.756Z,1.30
2022-08-28T10:21:36.606Z,1.40
2022-08-28T10:22:37.439Z,1.40
2022-08-28T10:23:38.302Z,1.40
2022-08-28T10:24:39.099Z,1.40
2022-08-28T10:25:40.109Z,1.30
2022-08-28T10:26:40.488Z,1.50
2022-08-28T10:27:41.339Z,1.50
2022-08-28T10:28:42.147Z,1.30
2022-08-28T10:29:43.045Z,1.40
2022-08-28T10:30:43.928Z,1.40
2022-08-28T10:31:44.760Z,1.30
2022-08-28T10:32:45.593Z,1.30
2022-08-28T10:33:46.422Z,1.40
2022-08-28T10:34:47.248Z,1.20
2022-08-28T10:35:48.125Z,1.30
2022-08-28T10:36:48.928Z,1.40
2022-08-28T10:37:49.759Z,1.30
2022-08-28T10:38:53.079Z,1.50
2022-08-28T10:39:51.569Z,1.30
2022-08-28T10:40:52.423Z,1.50
2022-08-28T10:41:53.323Z,1.40
2022-08-28T10:42:54.124Z,1.40
2022-08-28T10:43:54.953Z,1.40
2022-08-28T10:44:55.782Z,1.20
2022-08-28T10:45:56.660Z,1.40
2022-08-28T10:46:57.453Z,1.20
2022-08-28T10:47:58.319Z,1.30
2022-08-28T10:48:59.123Z,1.30
2022-08-28T10:49:59.945Z,1.50
2022-08-28T10:51:00.791Z,1.30
2022-08-28T10:52:01.618Z,1.40
2022-08-28T10:53:02.440Z,1.40
2022-08-28T10:54:03.289Z,1.30
2022-08-28T10:55:04.093Z,1.40
2022-08-28T10:56:04.934Z,1.20
2022-08-28T10:57:05.754Z,1.50
2022-08-28T10:58:21.514Z,1.30
2022-08-28T10:59:08.300Z,1.50
2022-08-28T11:00:08.156Z,1.30
2022-08-28T11:01:09.028Z,1.30
2022-08-28T11:02:09.838Z,1.30
2022-08-28T11:03:27.026Z,1.20
2022-08-28T11:04:12.347Z,1.40
2022-08-28T11:05:12.177Z,1.30
2022-08-28T11:06:13.044Z,1.20
2022-08-28T11:07:13.852Z,1.20
2022-08-28T11:08:14.890Z,1.10
2022-08-28T11:09:15.222Z,1.20
2022-08-28T11:10:16.057Z,1.20
2022-08-28T11:11:16.893Z,1.20
2022-08-28T11:12:17.749Z,1.00
2022-08-28T11:13:18.553Z,1.30
2022-08-28T11:14:19.385Z,1.20
2022-08-28T11:15:20.214Z,1.20
2022-08-28T11:16:21.082Z,1.00
2022-08-28T11:17:21.873Z,1.10
2022-08-28T11:18:22.722Z,1.10
2022-08-28T11:19:23.334Z,1.20
2022-08-28T11:20:24.165Z,1.00
2022-08-28T11:21:25.008Z,1.10
2022-08-28T11:22:25.829Z,1.20
2022-08-28T11:23:26.660Z,0.90
2022-08-28T11:24:27.222Z,0.90
2022-08-28T11:25:32.579Z,1.00
2022-08-28T11:26:28.747Z,1.00
2022-08-28T11:27:29.589Z,0.90
2022-08-28T11:28:30.408Z,0.90
2022-08-28T11:29:31.237Z,0.90
2022-08-28T11:30:32.189Z,0.80
2022-08-28T11:31:33.030Z,0.90
2022-08-28T11:32:33.801Z,0.70
2022-08-28T11:33:34.630Z,0.80
2022-08-28T11:34:35.461Z,0.90
2022-08-28T11:35:36.290Z,0.80
2022-08-28T11:36:37.172Z,0.80
2022-08-28T11:37:37.961Z,0.80
2022-08-28T11:38:38.784Z,0.80
2022-08-28T11:39:39.612Z,0.90
2022-08-28T11:40:40.517Z,0.80
2022-08-28T11:41:41.332Z,0.80
2022-08-28T11:42:42.200Z,0.80
2022-08-28T11:43:42.988Z,0.70
2022-08-28T11:44:43.807Z,0.90
2022-08-28T11:45:46.591Z,0.80
2022-08-28T11:46:45.140Z,0.90
2022-08-28T11:47:45.969Z,0.80
2022-08-28T11:48:46.820Z,0.90
2022-08-28T11:49:47.619Z,0.80
2022-08-28T11:50:48.452Z,0.70
2022-08-28T11:51:49.308Z,0.90
2022-08-28T11:52:50.134Z,1.00
2022-08-28T11:53:50.963Z,0.80
2022-08-28T11:54:51.816Z,0.80
2022-08-28T11:55:52.626Z,1.00
2022-08-28T11:56:53.463Z,0.90
2022-08-28T11:57:54.294Z,0.90
2022-08-28T11:58:55.123Z,1.00
2022-08-28T11:59:56.054Z,1.10
2022-08-28T12:00:56.922Z,0.90
2022-08-28T12:01:57.743Z,0.90
2022-08-28T12:02:58.565Z,0.90
2022-08-28T12:03:59.461Z,0.80
2022-08-28T12:05:00.232Z,0.80
2022-08-28T12:06:01.061Z,0.80
2022-08-28T12:07:01.939Z,0.80
2022-08-28T12:08:02.728Z,0.90
2022-08-28T12:09:03.469Z,0.80
2022-08-28T12:10:05.278Z,0.80
2022-08-28T12:11:05.129Z,0.80
2022-08-28T12:12:05.959Z,0.80
2022-08-28T12:13:06.877Z,0.90
2022-08-28T12:14:07.697Z,0.80
2022-08-28T12:15:08.532Z,0.60
2022-08-28T12:16:09.417Z,0.80
2022-08-28T12:17:10.211Z,0.60
2022-08-28T12:18:11.033Z,0.60
2022-08-28T12:19:11.901Z,0.60
2022-08-28T12:20:12.707Z,0.60
2022-08-28T12:21:13.561Z,0.50
2022-08-28T12:22:14.392Z,0.70
2022-08-28T12:23:15.235Z,0.70
2022-08-28T12:24:16.087Z,0.70
2022-08-28T12:25:16.863Z,0.60
2022-08-28T12:26:17.674Z,0.70
2022-08-28T12:27:18.496Z,0.60
2022-08-28T12:28:19.334Z,0.60
2022-08-28T12:29:20.145Z,0.60
2022-08-28T12:30:20.975Z,0.70
2022-08-28T12:31:21.901Z,0.50
2022-08-28T12:32:22.672Z,0.60
2022-08-28T12:33:23.511Z,0.60
2022-08-28T12:34:24.342Z,0.60
2022-08-28T12:35:25.184Z,0.60
2022-08-28T12:36:26.023Z,0.60
2022-08-28T12:37:26.874Z,0.70
2022-08-28T12:38:27.676Z,0.70
2022-08-28T12:39:28.516Z,0.70
2022-08-28T12:40:29.457Z,0.50
2022-08-28T12:41:30.307Z,0.60
2022-08-28T12:42:31.135Z,0.50
2022-08-28T12:43:32.002Z,1.40
2022-08-28T12:44:32.796Z,1.60
2022-08-28T12:45:33.616Z,1.10
2022-08-28T12:46:34.480Z,0.90
2022-08-28T12:47:35.278Z,0.70
2022-08-28T12:48:36.110Z,0.70
2022-08-28T12:49:36.820Z,0.70
2022-08-28T12:50:37.624Z,0.80
2022-08-28T12:51:38.467Z,0.90
2022-08-28T12:52:39.296Z,0.70
2022-08-28T12:53:40.139Z,0.70
2022-08-28T12:54:40.966Z,0.60
2022-08-28T12:55:41.838Z,0.60
2022-08-28T12:56:42.635Z,0.50
2022-08-28T12:57:43.458Z,0.60
2022-08-28T12:58:44.292Z,0.60
2022-08-28T12:59:45.107Z,0.60
2022-08-28T13:00:45.937Z,0.70
2022-08-28T13:01:46.933Z,0.60
2022-08-28T13:02:50.660Z,0.60
2022-08-28T13:03:48.142Z,0.60
2022-08-28T13:04:48.964Z,0.50
2022-08-28T13:05:49.793Z,0.60
2022-08-28T13:06:50.623Z,0.60
2022-08-28T13:07:51.502Z,0.60
2022-08-28T13:08:52.310Z,0.70
2022-08-28T13:09:53.140Z,0.60
2022-08-28T13:10:53.968Z,0.70
2022-08-28T13:11:54.807Z,0.70
2022-08-28T13:12:58.037Z,0.60
2022-08-28T13:13:57.400Z,0.70
2022-08-28T13:14:57.178Z,0.80
2022-08-28T13:15:58.042Z,0.80
2022-08-28T13:16:58.901Z,0.80
2022-08-28T13:17:59.731Z,0.70
2022-08-28T13:19:00.561Z,0.70
2022-08-28T13:20:01.442Z,0.80
2022-08-28T13:21:02.245Z,0.80
2022-08-28T13:22:03.074Z,0.80
2022-08-28T13:23:03.894Z,0.80
2022-08-28T13:24:04.724Z,0.80
2022-08-28T13:25:05.546Z,0.70
2022-08-28T13:26:06.432Z,0.80
2022-08-28T13:27:07.236Z,0.80
2022-08-28T13:28:08.063Z,0.80
2022-08-28T13:29:08.884Z,0.70